createdAt,value
2019-05-16T00:00:36.552Z,49.70
2019-05-16T00:03:08.342Z,49.10
2019-05-16T00:05:50.812Z,49.37
2019-05-16T00:08:13.277Z,49.41
2019-05-16T00:10:44.731Z,50.13
2019-05-16T00:13:18.539Z,49.43
2019-05-16T00:15:49.811Z,49.40
2019-05-16T00:18:20.770Z,49.36
2019-05-16T00:20:52.592Z,49.72
2019-05-16T00:23:24.742Z,49.13
2019-05-16T00:25:58.623Z,49.82
2019-05-16T00:28:29.487Z,49.84
2019-05-16T00:31:01.423Z,49.70
2019-05-16T00:33:33.696Z,49.47
2019-05-16T00:36:06.782Z,49.32
2019-05-16T00:38:39.056Z,49.43
2019-05-16T00:41:10.938Z,49.57
2019-05-16T00:43:42.321Z,49.59
2019-05-16T00:46:14.327Z,49.59
2019-05-16T00:48:48.567Z,49.34
2019-05-16T00:51:20.099Z,49.31
2019-05-16T00:53:52.053Z,49.53
2019-05-16T00:56:23.810Z,49.59
2019-05-16T00:58:58.716Z,49.87
2019-05-16T01:01:30.300Z,49.99
2019-05-16T01:04:01.875Z,49.85
2019-05-16T01:06:33.196Z,50.16
2019-05-16T01:09:08.657Z,50.25
2019-05-16T01:11:41.020Z,49.91
2019-05-16T01:14:12.851Z,50.11
2019-05-16T01:16:44.890Z,50.23
2019-05-16T01:19:18.552Z,50.39
2019-05-16T01:21:49.672Z,49.97
2019-05-16T01:24:21.218Z,50.05
2019-05-16T01:26:53.306Z,50.12
2019-05-16T01:29:25.155Z,50.11
2019-05-16T01:31:59.016Z,50.07
2019-05-16T01:34:30.803Z,50.01
2019-05-16T01:37:02.691Z,50.23
2019-05-16T01:39:34.236Z,50.05
2019-05-16T01:42:07.840Z,49.64
2019-05-16T01:44:39.178Z,49.84
2019-05-16T01:47:10.532Z,50.18
2019-05-16T01:49:42.433Z,49.53
2019-05-16T01:52:14.247Z,49.35
2019-05-16T01:54:47.982Z,49.44
2019-05-16T01:57:19.323Z,49.19
2019-05-16T01:59:50.847Z,49.37
2019-05-16T02:02:22.614Z,49.37
2019-05-16T02:04:54.640Z,49.13
2019-05-16T02:07:28.359Z,49.11
2019-05-16T02:10:01.058Z,49.27
2019-05-16T02:12:33.038Z,48.95
2019-05-16T02:15:04.782Z,48.66
2019-05-16T02:17:38.379Z,48.21
2019-05-16T02:20:09.509Z,49.26
2019-05-16T02:22:41.562Z,49.26
2019-05-16T02:25:13.356Z,49.33
2019-05-16T02:27:45.301Z,48.80
2019-05-16T02:30:16.826Z,49.29
2019-05-16T02:32:51.910Z,48.80
2019-05-16T02:35:22.256Z,48.90
2019-05-16T02:37:55.391Z,48.69
2019-05-16T02:40:27.150Z,48.61
2019-05-16T02:43:01.750Z,48.94
2019-05-16T02:45:33.013Z,48.64
2019-05-16T02:48:04.346Z,48.75
2019-05-16T02:50:35.872Z,48.21
2019-05-16T02:53:07.489Z,48.26
2019-05-16T02:55:41.063Z,47.89
2019-05-16T02:58:12.619Z,47.93
2019-05-16T03:00:44.308Z,47.47
2019-05-16T03:03:15.543Z,47.65
2019-05-16T03:05:50.582Z,47.46
2019-05-16T03:08:21.478Z,47.47
2019-05-16T03:10:54.287Z,47.13
2019-05-16T03:13:30.884Z,47.32
2019-05-16T03:16:02.481Z,47.33
2019-05-16T03:18:34.892Z,47.02
2019-05-16T03:21:11.167Z,47.28
2019-05-16T03:23:42.230Z,47.51
2019-05-16T03:26:14.267Z,47.78
2019-05-16T03:28:45.771Z,47.43
2019-05-16T03:31:23.737Z,47.49
2019-05-16T03:33:58.739Z,47.41
2019-05-16T03:36:25.730Z,47.95
2019-05-16T03:39:01.101Z,47.41
2019-05-16T03:41:31.029Z,47.66
2019-05-16T03:44:02.673Z,47.77
2019-05-16T03:46:34.750Z,48.69
2019-05-16T03:49:05.940Z,47.99
2019-05-16T03:51:37.803Z,48.13
2019-05-16T03:54:12.465Z,47.82
2019-05-16T03:56:43.671Z,47.88
2019-05-16T03:59:14.727Z,48.23
2019-05-16T04:01:46.543Z,48.23
2019-05-16T04:04:20.924Z,48.38
2019-05-16T04:06:51.820Z,48.67
2019-05-16T04:09:23.666Z,48.31
2019-05-16T04:11:55.238Z,48.46
2019-05-16T04:14:30.694Z,48.74
2019-05-16T04:17:01.809Z,48.67
2019-05-16T04:19:33.466Z,49.10
2019-05-16T04:22:05.342Z,49.03
2019-05-16T04:24:36.847Z,50.40
2019-05-16T04:27:11.764Z,49.78
2019-05-16T04:29:42.206Z,51.21
2019-05-16T04:32:13.807Z,51.78
2019-05-16T04:34:45.829Z,52.19
2019-05-16T04:37:17.711Z,52.65
2019-05-16T04:39:50.596Z,52.59
2019-05-16T04:42:25.213Z,53.84
2019-05-16T04:45:01.388Z,53.40
2019-05-16T04:47:33.675Z,53.45
2019-05-16T04:50:05.209Z,53.37
2019-05-16T04:52:37.219Z,52.42
2019-05-16T04:55:11.844Z,52.38
2019-05-16T04:57:42.657Z,53.44
2019-05-16T05:00:16.095Z,53.15
2019-05-16T05:02:47.976Z,53.73
2019-05-16T05:05:21.496Z,53.79
2019-05-16T05:07:52.936Z,54.45
2019-05-16T05:10:25.051Z,55.53
2019-05-16T05:12:56.840Z,55.62
2019-05-16T05:15:30.627Z,56.44
2019-05-16T05:18:02.005Z,57.45
2019-05-16T05:20:34.032Z,57.93
2019-05-16T05:23:06.323Z,57.35
2019-05-16T05:25:40.392Z,57.97
2019-05-16T05:28:13.536Z,57.77
2019-05-16T05:30:45.695Z,57.83
2019-05-16T05:33:21.149Z,58.52
2019-05-16T05:35:51.664Z,59.16
2019-05-16T05:38:24.459Z,59.32
2019-05-16T05:40:56.609Z,59.77
2019-05-16T05:43:30.295Z,61.14
2019-05-16T05:46:01.550Z,61.76
2019-05-16T05:48:33.525Z,61.73
2019-05-16T05:51:05.405Z,61.69
2019-05-16T05:53:36.732Z,62.23
2019-05-16T05:56:11.368Z,62.88
2019-05-16T05:58:41.288Z,63.50
2019-05-16T06:01:12.926Z,63.86
2019-05-16T06:03:44.725Z,63.81
2019-05-16T06:06:16.236Z,63.82
2019-05-16T06:08:50.043Z,64.05
2019-05-16T06:11:20.989Z,64.52
2019-05-16T06:13:53.108Z,65.12
2019-05-16T06:16:25.100Z,65.31
2019-05-16T06:18:56.838Z,66.24
2019-05-16T06:21:33.267Z,66.17
2019-05-16T06:24:03.576Z,66.51
2019-05-16T06:26:35.628Z,66.84
2019-05-16T06:29:10.169Z,67.13
2019-05-16T06:31:41.067Z,67.29
2019-05-16T06:34:15.271Z,67.82
2019-05-16T06:36:46.252Z,68.55
2019-05-16T06:39:19.952Z,67.60
2019-05-16T06:41:51.757Z,68.92
2019-05-16T06:44:23.974Z,68.70
2019-05-16T06:47:09.646Z,69.17
2019-05-16T06:49:30.408Z,69.31
2019-05-16T06:52:02.100Z,70.08
2019-05-16T06:54:33.884Z,70.30
2019-05-16T06:57:06.263Z,70.70
2019-05-16T06:59:37.718Z,71.07
2019-05-16T07:02:15.189Z,71.14
2019-05-16T07:04:44.577Z,71.65
2019-05-16T07:07:17.459Z,71.75
2019-05-16T07:09:59.979Z,71.93
2019-05-16T07:12:22.817Z,72.46
2019-05-16T07:14:54.365Z,72.36
2019-05-16T07:17:26.535Z,72.33
2019-05-16T07:20:00.726Z,72.56
2019-05-16T07:22:33.125Z,72.78
2019-05-16T07:25:04.293Z,73.08
2019-05-16T07:27:35.988Z,72.98
2019-05-16T07:30:10.588Z,73.18
2019-05-16T07:32:41.815Z,73.40
2019-05-16T07:35:14.366Z,73.87
2019-05-16T07:37:46.057Z,73.85
2019-05-16T07:40:23.648Z,74.15
2019-05-16T07:42:52.002Z,74.10
2019-05-16T07:45:23.845Z,74.00
2019-05-16T07:47:55.721Z,74.24
2019-05-16T07:50:30.053Z,73.93
2019-05-16T07:53:01.461Z,74.36
2019-05-16T07:55:32.957Z,74.24
2019-05-16T07:58:04.276Z,74.51
2019-05-16T08:00:49.879Z,74.58
2019-05-16T08:03:10.551Z,74.94
2019-05-16T08:05:42.109Z,75.03
2019-05-16T08:08:14.020Z,75.18
2019-05-16T08:10:46.828Z,75.43
2019-05-16T08:13:21.234Z,75.44
2019-05-16T08:15:52.377Z,75.82
2019-05-16T08:18:24.165Z,75.77
2019-05-16T08:20:55.992Z,75.60
2019-05-16T08:23:30.410Z,75.84
2019-05-16T08:26:01.751Z,76.22
2019-05-16T08:28:33.869Z,76.46
2019-05-16T08:31:05.730Z,76.33
2019-05-16T08:33:41.287Z,76.20
2019-05-16T08:36:11.984Z,76.28
2019-05-16T08:38:43.758Z,76.59
2019-05-16T08:41:17.338Z,76.41
2019-05-16T08:43:53.386Z,76.19
2019-05-16T08:46:24.372Z,76.10
2019-05-16T08:48:56.169Z,76.16
2019-05-16T08:51:32.719Z,75.90
2019-05-16T08:54:01.977Z,75.66
2019-05-16T08:56:34.094Z,75.98
2019-05-16T08:59:05.063Z,76.14
2019-05-16T09:01:36.380Z,76.32
2019-05-16T09:04:11.705Z,76.39
2019-05-16T09:06:42.449Z,76.15
2019-05-16T09:09:29.663Z,76.33
2019-05-16T09:11:48.843Z,75.88
2019-05-16T09:14:20.340Z,75.64
2019-05-16T09:16:51.818Z,75.29
2019-05-16T09:19:23.030Z,75.51
2019-05-16T09:21:57.832Z,75.19
2019-05-16T09:24:27.762Z,75.06
2019-05-16T09:26:59.789Z,74.96
2019-05-16T09:29:31.380Z,75.13
2019-05-16T09:32:12.645Z,75.10
2019-05-16T09:34:37.938Z,74.92
2019-05-16T09:37:09.417Z,74.61
2019-05-16T09:39:40.987Z,74.40
2019-05-16T09:42:13.051Z,74.49
2019-05-16T09:44:47.490Z,74.33
2019-05-16T09:47:19.184Z,74.47
2019-05-16T09:49:50.979Z,74.41
2019-05-16T09:52:22.888Z,74.65
2019-05-16T09:54:54.390Z,74.61
2019-05-16T09:57:27.786Z,74.33
2019-05-16T09:59:59.282Z,74.43
2019-05-16T10:02:31.123Z,74.55
2019-05-16T10:05:03.228Z,74.35
2019-05-16T10:07:38.767Z,74.03
2019-05-16T10:10:10.079Z,74.11
2019-05-16T10:12:41.302Z,74.09
2019-05-16T10:15:13.737Z,74.99
2019-05-16T10:17:47.609Z,74.85
2019-05-16T10:20:18.644Z,74.66
2019-05-16T10:22:50.794Z,74.91
2019-05-16T10:25:22.237Z,74.32
2019-05-16T10:27:53.607Z,74.54
2019-05-16T10:30:26.957Z,74.38
2019-05-16T10:33:00.856Z,74.43
2019-05-16T10:35:32.251Z,74.61
2019-05-16T10:38:03.820Z,74.67
2019-05-16T10:40:36.867Z,74.66
2019-05-16T10:43:09.046Z,74.96
2019-05-16T10:45:41.006Z,74.90
2019-05-16T10:48:13.379Z,75.14
2019-05-16T10:50:47.458Z,75.53
2019-05-16T10:53:55.606Z,75.35
2019-05-16T10:55:51.376Z,75.23
2019-05-16T10:58:35.301Z,75.44
2019-05-16T11:01:24.443Z,75.41
2019-05-16T11:03:30.773Z,75.65
2019-05-16T11:06:06.021Z,75.86
2019-05-16T11:08:37.144Z,75.69
2019-05-16T11:11:09.979Z,75.91
2019-05-16T11:13:41.943Z,76.03
2019-05-16T11:16:13.610Z,76.02
2019-05-16T11:18:46.266Z,76.12
2019-05-16T11:21:19.299Z,76.36
2019-05-16T11:23:50.936Z,76.71
2019-05-16T11:26:22.306Z,76.58
2019-05-16T11:28:56.606Z,76.75
2019-05-16T11:31:27.392Z,76.95
2019-05-16T11:33:59.074Z,77.24
2019-05-16T11:36:31.007Z,77.17
2019-05-16T11:39:03.725Z,77.18
2019-05-16T11:41:35.962Z,77.13
2019-05-16T11:44:08.064Z,77.16
2019-05-16T11:46:39.690Z,77.25
2019-05-16T11:49:11.541Z,77.40
2019-05-16T11:51:43.240Z,77.49
2019-05-16T11:54:14.753Z,77.39
2019-05-16T11:56:46.818Z,77.12
2019-05-16T11:59:18.255Z,76.91
2019-05-16T12:01:50.445Z,76.93
2019-05-16T12:04:22.123Z,76.93
2019-05-16T12:06:53.711Z,77.21
2019-05-16T12:09:32.208Z,77.24
2019-05-16T12:12:03.862Z,77.07
2019-05-16T12:14:32.513Z,76.96
2019-05-16T12:17:04.271Z,76.86
2019-05-16T12:19:42.814Z,77.14
2019-05-16T12:22:09.364Z,76.89
2019-05-16T12:24:41.648Z,77.02
2019-05-16T12:27:13.821Z,77.10
2019-05-16T12:29:50.209Z,76.93
2019-05-16T12:32:18.390Z,77.34
2019-05-16T12:34:49.613Z,77.34
2019-05-16T12:37:20.872Z,77.05
2019-05-16T12:39:52.536Z,77.34
2019-05-16T12:42:26.917Z,77.17
2019-05-16T12:44:57.673Z,76.98
2019-05-16T12:47:29.603Z,77.35
2019-05-16T12:50:01.201Z,77.46
2019-05-16T12:52:32.877Z,77.39
2019-05-16T12:55:04.827Z,77.32
2019-05-16T12:57:38.285Z,77.27
2019-05-16T13:00:15.251Z,77.28
2019-05-16T13:02:47.116Z,77.11
2019-05-16T13:05:18.181Z,77.28
2019-05-16T13:07:50.049Z,77.43
2019-05-16T13:10:22.614Z,77.72
2019-05-16T13:12:57.981Z,77.54
2019-05-16T13:15:37.849Z,77.57
2019-05-16T13:18:08.863Z,77.85
2019-05-16T13:20:41.441Z,77.88
2019-05-16T13:23:14.892Z,77.97
2019-05-16T13:25:48.153Z,78.73
2019-05-16T13:28:19.989Z,78.73
2019-05-16T13:30:51.581Z,78.18
2019-05-16T13:33:24.238Z,78.26
2019-05-16T13:35:57.835Z,78.20
2019-05-16T13:38:29.366Z,78.11
2019-05-16T13:41:01.335Z,78.36
2019-05-16T13:43:32.687Z,78.41
2019-05-16T13:46:07.100Z,78.65
2019-05-16T13:48:39.261Z,78.54
2019-05-16T13:51:15.545Z,78.31
2019-05-16T13:53:47.032Z,78.29
2019-05-16T13:56:18.331Z,78.49
2019-05-16T13:58:49.708Z,78.27
2019-05-16T14:01:22.227Z,78.28
2019-05-16T14:03:54.321Z,78.43
2019-05-16T14:06:26.285Z,78.41
2019-05-16T14:08:58.445Z,78.53
2019-05-16T14:11:30.560Z,78.43
2019-05-16T14:14:04.805Z,78.22
2019-05-16T14:16:37.692Z,78.35
2019-05-16T14:19:09.984Z,78.10
2019-05-16T14:21:41.995Z,78.03
2019-05-16T14:24:13.717Z,78.08
2019-05-16T14:26:46.462Z,78.10
2019-05-16T14:29:18.080Z,78.05
2019-05-16T14:31:50.363Z,78.32
2019-05-16T14:34:21.991Z,78.32
2019-05-16T14:36:53.549Z,78.13
2019-05-16T14:39:28.309Z,78.21
2019-05-16T14:41:59.020Z,78.13
2019-05-16T14:44:30.757Z,77.99
2019-05-16T14:47:02.662Z,78.10
2019-05-16T14:49:37.220Z,78.27
2019-05-16T14:52:07.854Z,78.15
2019-05-16T14:54:39.457Z,78.12
2019-05-16T14:57:11.344Z,78.06
2019-05-16T14:59:42.878Z,78.09
2019-05-16T15:02:14.466Z,77.82
2019-05-16T15:04:49.446Z,77.82
2019-05-16T15:07:19.727Z,77.79
2019-05-16T15:09:51.618Z,77.91
2019-05-16T15:12:23.418Z,78.25
2019-05-16T15:14:58.685Z,78.24
2019-05-16T15:17:28.152Z,78.27
2019-05-16T15:19:59.715Z,78.47
2019-05-16T15:22:31.900Z,78.26
2019-05-16T15:25:03.571Z,78.50
2019-05-16T15:27:37.130Z,78.48
2019-05-16T15:30:09.364Z,78.90
2019-05-16T15:32:40.846Z,79.23
2019-05-16T15:35:12.716Z,79.29
2019-05-16T15:37:44.473Z,79.26
2019-05-16T15:40:17.725Z,79.19
2019-05-16T15:42:50.027Z,79.17
2019-05-16T15:45:35.630Z,79.05
2019-05-16T15:47:59.917Z,79.01
2019-05-16T15:50:31.890Z,78.78
2019-05-16T15:53:04.435Z,78.51
2019-05-16T15:55:36.403Z,78.59
2019-05-16T15:58:10.491Z,78.31
2019-05-16T16:00:47.472Z,78.13
2019-05-16T16:03:18.405Z,77.95
2019-05-16T16:05:49.802Z,77.94
2019-05-16T16:08:21.635Z,78.19
2019-05-16T16:10:53.573Z,78.34
2019-05-16T16:13:26.833Z,78.38
2019-05-16T16:15:58.548Z,78.72
2019-05-16T16:18:30.224Z,78.92
2019-05-16T16:21:02.034Z,79.07
2019-05-16T16:23:33.993Z,79.16
2019-05-16T16:26:12.464Z,79.38
2019-05-16T16:28:43.978Z,79.39
2019-05-16T16:31:16.962Z,79.35
2019-05-16T16:33:49.886Z,79.00
2019-05-16T16:36:21.652Z,78.67
2019-05-16T16:38:57.634Z,78.53
2019-05-16T16:41:29.549Z,78.73
2019-05-16T16:44:01.476Z,78.70
2019-05-16T16:46:32.590Z,78.83
2019-05-16T16:49:04.670Z,78.91
2019-05-16T16:51:37.442Z,79.19
2019-05-16T16:54:09.541Z,79.39
2019-05-16T16:56:41.725Z,78.79
2019-05-16T16:59:13.731Z,78.63
2019-05-16T17:01:46.554Z,78.57
2019-05-16T17:04:18.253Z,78.48
2019-05-16T17:06:50.287Z,78.46
2019-05-16T17:09:22.201Z,78.63
2019-05-16T17:11:54.179Z,78.55
2019-05-16T17:14:26.446Z,78.56
2019-05-16T17:16:57.937Z,78.67
2019-05-16T17:19:30.112Z,78.91
2019-05-16T17:22:13.740Z,78.60
2019-05-16T17:24:36.714Z,78.58
2019-05-16T17:27:08.788Z,78.29
2019-05-16T17:29:40.542Z,78.16
2019-05-16T17:32:13.688Z,78.44
2019-05-16T17:34:46.157Z,78.58
2019-05-16T17:37:18.042Z,78.63
2019-05-16T17:39:50.484Z,78.76
2019-05-16T17:42:22.153Z,78.95
2019-05-16T17:44:53.565Z,78.87
2019-05-16T17:47:26.282Z,78.75
2019-05-16T17:49:58.240Z,78.82
2019-05-16T17:52:29.601Z,78.58
2019-05-16T17:55:01.480Z,78.54
2019-05-16T17:57:37.151Z,78.82
2019-05-16T18:00:12.349Z,78.75
2019-05-16T18:02:43.363Z,78.75
2019-05-16T18:05:16.968Z,78.94
2019-05-16T18:07:48.329Z,78.74
2019-05-16T18:10:20.713Z,78.25
2019-05-16T18:12:52.672Z,78.39
2019-05-16T18:15:24.950Z,78.45
2019-05-16T18:17:56.632Z,78.46
2019-05-16T18:20:28.856Z,78.72
2019-05-16T18:23:00.938Z,78.86
2019-05-16T18:25:32.705Z,78.61
2019-05-16T18:28:04.248Z,78.67
2019-05-16T18:30:36.604Z,78.46
2019-05-16T18:33:10.307Z,78.67
2019-05-16T18:35:41.980Z,78.73
2019-05-16T18:38:14.564Z,78.87
2019-05-16T18:40:47.525Z,78.94
2019-05-16T18:43:21.425Z,78.99
2019-05-16T18:45:53.208Z,79.00
2019-05-16T18:48:27.268Z,79.15
2019-05-16T18:50:59.480Z,79.18
2019-05-16T18:53:30.841Z,79.16
2019-05-16T18:56:02.702Z,79.14
2019-05-16T18:58:37.030Z,79.09
2019-05-16T19:01:07.931Z,78.98
2019-05-16T19:03:39.859Z,79.02
2019-05-16T19:06:12.071Z,79.27
2019-05-16T19:08:44.739Z,79.40
2019-05-16T19:11:17.561Z,79.29
2019-05-16T19:13:49.609Z,79.39
2019-05-16T19:16:21.744Z,79.42
2019-05-16T19:18:53.649Z,79.53
2019-05-16T19:21:26.269Z,79.73
2019-05-16T19:23:59.187Z,79.66
2019-05-16T19:26:30.534Z,79.78
2019-05-16T19:29:02.377Z,79.78
2019-05-16T19:31:38.850Z,79.59
2019-05-16T19:34:09.080Z,79.60
2019-05-16T19:36:41.056Z,79.64
2019-05-16T19:39:12.587Z,79.88
2019-05-16T19:41:46.535Z,79.80
2019-05-16T19:44:17.885Z,79.81
2019-05-16T19:46:49.496Z,79.91
2019-05-16T19:49:21.825Z,79.87
2019-05-16T19:51:53.846Z,79.68
2019-05-16T19:54:26.973Z,79.62
2019-05-16T19:56:58.884Z,79.52
2019-05-16T19:59:30.756Z,79.34
2019-05-16T20:02:02.185Z,79.34
2019-05-16T20:04:33.971Z,79.41
2019-05-16T20:07:07.390Z,79.39
2019-05-16T20:09:40.564Z,79.66
2019-05-16T20:12:12.727Z,79.67
2019-05-16T20:14:44.253Z,79.62
2019-05-16T20:17:16.222Z,79.59
2019-05-16T20:19:48.654Z,79.49
2019-05-16T20:22:20.051Z,79.45
2019-05-16T20:24:51.998Z,79.43
2019-05-16T20:27:23.916Z,79.26
2019-05-16T20:29:56.400Z,79.25
2019-05-16T20:32:28.767Z,79.24
2019-05-16T20:35:00.937Z,79.43
2019-05-16T20:37:32.468Z,79.39
2019-05-16T20:40:03.868Z,79.27
2019-05-16T20:42:36.720Z,79.42
2019-05-16T20:45:09.361Z,79.31
2019-05-16T20:47:40.934Z,79.40
2019-05-16T20:50:12.725Z,79.21
2019-05-16T20:52:46.642Z,78.67
2019-05-16T20:55:18.401Z,78.77
2019-05-16T20:57:50.468Z,78.81
2019-05-16T21:00:22.457Z,78.96
2019-05-16T21:02:54.480Z,78.97
2019-05-16T21:05:26.847Z,78.89
2019-05-16T21:07:58.423Z,79.16
2019-05-16T21:10:29.669Z,79.15
2019-05-16T21:13:01.975Z,79.28
2019-05-16T21:15:33.733Z,79.12
2019-05-16T21:18:07.534Z,79.12
2019-05-16T21:20:39.280Z,79.21
2019-05-16T21:23:10.919Z,79.11
2019-05-16T21:25:43.054Z,79.18
2019-05-16T21:28:17.094Z,79.42
2019-05-16T21:30:48.096Z,79.39
2019-05-16T21:33:20.334Z,79.62
2019-05-16T21:35:52.578Z,79.56
2019-05-16T21:38:26.945Z,79.73
2019-05-16T21:40:58.407Z,79.73
2019-05-16T21:43:30.730Z,79.89
2019-05-16T21:46:02.842Z,79.97
2019-05-16T21:48:37.003Z,79.96
2019-05-16T21:51:09.008Z,79.84
2019-05-16T21:53:41.114Z,79.55
2019-05-16T21:56:13.282Z,79.56
2019-05-16T21:58:47.211Z,79.59
2019-05-16T22:01:20.440Z,79.84
2019-05-16T22:03:53.092Z,79.99
2019-05-16T22:06:24.713Z,80.18
2019-05-16T22:08:57.393Z,80.40
2019-05-16T22:11:29.899Z,80.30
2019-05-16T22:14:03.113Z,80.46
2019-05-16T22:16:37.131Z,80.20
2019-05-16T22:19:09.502Z,80.20
2019-05-16T22:21:41.356Z,80.19
2019-05-16T22:24:12.844Z,80.28
2019-05-16T22:26:46.666Z,80.22
2019-05-16T22:29:21.291Z,80.27
2019-05-16T22:31:53.173Z,80.29
2019-05-16T22:34:26.461Z,80.44
2019-05-16T22:36:58.510Z,80.48
2019-05-16T22:39:30.738Z,80.53
2019-05-16T22:42:02.631Z,80.51
2019-05-16T22:44:37.060Z,80.72
2019-05-16T22:47:08.003Z,80.64
2019-05-16T22:49:40.427Z,80.69
2019-05-16T22:52:12.275Z,80.57
2019-05-16T22:54:44.398Z,80.29
2019-05-16T22:57:17.641Z,80.30
2019-05-16T22:59:49.765Z,80.48
2019-05-16T23:02:21.692Z,80.29
2019-05-16T23:04:53.546Z,80.15
2019-05-16T23:07:27.424Z,80.20
2019-05-16T23:09:59.122Z,80.33
2019-05-16T23:12:31.511Z,80.32
2019-05-16T23:15:03.220Z,80.42
2019-05-16T23:17:37.320Z,80.47
2019-05-16T23:20:08.246Z,80.26
2019-05-16T23:22:40.138Z,80.24
2019-05-16T23:25:11.636Z,80.19
2019-05-16T23:27:43.946Z,80.20
2019-05-16T23:30:16.545Z,79.94
2019-05-16T23:32:49.528Z,80.03
2019-05-16T23:35:21.327Z,80.24
2019-05-16T23:37:53.170Z,80.37
2019-05-16T23:40:25.020Z,80.24
2019-05-16T23:42:56.953Z,80.13
2019-05-16T23:45:28.347Z,80.21
2019-05-16T23:48:00.372Z,80.03
2019-05-16T23:50:32.278Z,80.02
2019-05-16T23:53:04.219Z,79.99
2019-05-16T23:55:37.113Z,80.10
2019-05-16T23:58:09.783Z,80.06
